Share

Nouméa, Nouvelle-Calédonie

La Tontouta (NWWW) Alt. 52 ft | 22.02 °S, 166.22 °E | Change Station

Current weather conditions updated 10 minutes ago

Clear
Ciel dégagé
81 ° F
Paraît 81 ° F
N
13
Vent Variable Vent de SE
Lever du soleil 6:08 AM
Coucher du soleil 5:38 PM
Lune Lune gibbeuse décroissante

Aujourd’hui il est prévu de faire pratiquement la même température qu’hier.

Pression 29.89 pouce
Visibilité 6.2 Miles terrestres
Nuages
indice de chaleur 81 ° F
Point de rosée 57 ° F
Humidité 45%
Précipitations 0.00 pouce
Profondeur de la couche neigeuse Non disponible.
UV Non disponible.
Pollen Non disponible.
Qualité de l'air Non disponible.
Flu Activity Non disponible.
METAR NWWW 190430Z AUTO 14011KT 9999 NSC 27/14 Q1012

More Conditions Fewer Conditions

Pression 29.89 pouce
Visibilité 6.2 Miles terrestres
Nuages
indice de chaleur 81 ° F
Point de rosée 57 ° F
Humidité 45%
Précipitations 0.00 pouce
Profondeur de la couche neigeuse Non disponible.
UV Non disponible.
Pollen Non disponible.
Qualité de l'air Non disponible.
Flu Activity Non disponible.
METAR NWWW 190430Z AUTO 14011KT 9999 NSC 27/14 Q1012

More Conditions Fewer Conditions

10-Day Weather Forecast

Almanac

Astronomie

Apr. 19, 2014 Lever Coucher
Temps réel 06:08 NCT 17:38 NCT
Crépuscule civil 05:45 NCT 18:01 NCT
Crépuscule nautique 05:19 NCT 18:27 NCT
Crépuscule astronomique 04:53 NCT 18:53 NCT
Lune 20:54 NCT 09:31 NCT
Durée de lumière visible 12h 15m
Longueur du jour
11h 30m
Tomorrow will be 1m 9s shorter.
Lune gibbeuse décroissante, 83% of the Moon is Illuminated
Aujourd'hui
Lune gibbeuse décroissante
avr 22
Dernier quartier
avr 29
Nouveau
mai 6
Premier quartier
mai 14
Pleine lune

Les extrêmes de température d’hier

Country Highs Country Lows

Community

  • Sunset Silhouettes
    Sunset Silhouettes
  • FL sunset Perico Isle
    FL sunset Perico Isle
  • Cloudy spring view
    Cloudy spring view
  • Old barn
    Old barn
  • What's for Lunch?
    What's for Lunch?

WunderPhotos

Upload Photos

1,702,640 Photos téléchargées !

WunderBlogs® & News

Nearby

Qualité de l'air

Not available.

Épaisseur de neige

Not available.

Températures des eaux côtières

Lieu Température
Aucun rapport de station

Activité sismique

Ville Distance Mag. Time & Date
No recent earthquake activity has been reported nearby.
Minimum magnitude displayed is 2.5.

Stations météo à proximité

Il n'y a aucune station météorologique personnelle dans cette zone.

What do you think?

We're not finished. Please let us know what you like, what you don't like, and what you are still missing.